Time;durP1;ratioP1;P1;durP2;ratioP2;P2;SDS_P1;SDS_P2;PMS_P1;PMS_P2;Temp;Humidity;BMP_temperature;BMP_pressure;BME280_temperature;BME280_humidity;BME280_pressure;Samples;Min_cycle;Max_cycle;Signal;HPM_P1;HPM_P2
2022/01/30 00:00:37;;;;;;;11.77;2.90;;;;;;;;;;5016812;28;20048;-82
2022/01/30 00:03:03;;;;;;;12.95;2.08;;;;;;;;;;5017245;28;20045;-79
2022/01/30 00:05:30;;;;;;;16.60;2.58;;;;;;;;;;5017036;28;20041;-81
2022/01/30 00:07:56;;;;;;;6.88;1.55;;;;;;;;;;5017199;28;20046;-81
2022/01/30 00:10:23;;;;;;;13.30;2.70;;;;;;;;;;5017230;28;20498;-79
2022/01/30 00:12:54;;;;;;;9.45;2.10;;;;;;;;;;5033215;28;20045;-79
2022/01/30 00:15:33;;;;;;;15.25;2.25;;;;;;;;;;5033512;28;20132;-80
2022/01/30 00:18:10;;;;;;;18.00;2.60;;;;;;;;;;5033292;28;20041;-78
2022/01/30 00:20:39;;;;;;;13.23;1.75;;;;;;;;;;5017262;28;20049;-77
2022/01/30 00:23:21;;;;;;;8.00;2.40;;;;;;;;;;5016595;28;20045;-77
2022/01/30 00:25:51;;;;;;;12.55;2.70;;;;;;;;;;5016037;28;20041;-80
2022/01/30 00:28:19;;;;;;;9.90;2.05;;;;;;;;;;5016872;28;20048;-78
2022/01/30 00:30:45;;;;;;;24.00;3.00;;;;;;;;;;5016529;28;20126;-79
2022/01/30 00:33:12;;;;;;;10.02;1.63;;;;;;;;;;5017110;28;20052;-77
2022/01/30 00:35:38;;;;;;;19.67;2.28;;;;;;;;;;5033371;28;20048;-80
2022/01/30 00:38:05;;;;;;;17.92;3.17;;;;;;;;;;5026593;28;20041;-78
2022/01/30 00:40:31;;;;;;;10.75;2.20;;;;;;;;;;5036529;28;20045;-81
2022/01/30 00:42:57;;;;;;;21.05;3.05;;;;;;;;;;5036554;28;20049;-81
2022/01/30 00:45:23;;;;;;;14.35;3.20;;;;;;;;;;5052536;28;20056;-78
2022/01/30 00:47:49;;;;;;;10.55;2.80;;;;;;;;;;5036788;28;20045;-78
2022/01/30 00:50:15;;;;;;;17.10;3.05;;;;;;;;;;5036347;28;20045;-77
2022/01/30 00:52:41;;;;;;;14.32;2.42;;;;;;;;;;5036059;28;20107;-77
2022/01/30 00:55:07;;;;;;;9.70;2.83;;;;;;;;;;5035266;28;20041;-76
2022/01/30 00:57:33;;;;;;;10.30;1.48;;;;;;;;;;5035854;28;20037;-82
2022/01/30 01:00:00;;;;;;;9.85;2.15;;;;;;;;;;5036392;28;20044;-78
2022/01/30 01:02:25;;;;;;;6.82;1.00;;;;;;;;;;5052193;28;20119;-79
2022/01/30 01:04:51;;;;;;;4.57;1.10;;;;;;;;;;5036019;28;20068;-79
2022/01/30 01:07:20;;;;;;;10.70;2.53;;;;;;;;;;5052347;28;20061;-81
2022/01/30 01:10:11;;;;;;;10.07;1.88;;;;;;;;;;5035565;28;20542;-78
2022/01/30 01:25:55;;;;;;;10.85;2.75;;;;;;;;;;5051075;28;20043;-79
2022/01/30 01:28:21;;;;;;;9.00;1.52;;;;;;;;;;5051118;28;20055;-78
2022/01/30 01:30:47;;;;;;;11.38;2.15;;;;;;;;;;5050772;28;20052;-78
2022/01/30 01:33:14;;;;;;;9.65;1.60;;;;;;;;;;5051165;28;20056;-81
2022/01/30 01:35:40;;;;;;;13.93;2.45;;;;;;;;;;5051664;28;20123;-78
2022/01/30 01:38:11;;;;;;;15.15;1.90;;;;;;;;;;5052152;28;20044;-80
2022/01/30 01:40:38;;;;;;;10.52;2.00;;;;;;;;;;5052420;28;20048;-80
2022/01/30 01:43:04;;;;;;;12.95;2.15;;;;;;;;;;5051510;28;20079;-79
2022/01/30 01:45:35;;;;;;;9.85;2.92;;;;;;;;;;5052123;28;20033;-79
2022/01/30 01:48:08;;;;;;;;;;;;;;;;;;5051929;28;20071;-80
2022/01/30 01:50:43;;;;;;;16.75;1.98;;;;;;;;;;5051579;28;19939;-79
2022/01/30 01:53:11;;;;;;;18.08;2.67;;;;;;;;;;5051876;28;20045;-79
2022/01/30 01:55:38;;;;;;;13.07;2.40;;;;;;;;;;5051246;28;20041;-77
2022/01/30 01:58:04;;;;;;;18.00;2.47;;;;;;;;;;5051864;28;20037;-82
2022/01/30 02:00:31;;;;;;;13.38;2.65;;;;;;;;;;5051454;28;20045;-81
2022/01/30 02:02:57;;;;;;;11.32;2.58;;;;;;;;;;5051471;28;20041;-82
2022/01/30 02:05:26;;;;;;;13.00;2.97;;;;;;;;;;5051735;28;20048;-77
2022/01/30 02:10:29;;;;;;;19.08;3.08;;;;;;;;;;5051779;28;20188;-81
2022/01/30 02:13:07;;;;;;;13.05;2.53;;;;;;;;;;5051949;28;20122;-80
2022/01/30 02:23:55;;;;;;;13.32;1.63;;;;;;;;;;5051381;28;20045;-75
2022/01/30 02:24:00;;;;;;;10.40;2.45;;;;;;;;;;5051621;28;20049;-80
2022/01/30 02:26:27;;;;;;;11.55;2.00;;;;;;;;;;5051090;28;20434;-78
2022/01/30 02:28:55;;;;;;;18.27;3.45;;;;;;;;;;5050519;28;20060;-81
2022/01/30 02:31:22;;;;;;;15.80;3.85;;;;;;;;;;5054669;28;20417;-79
2022/01/30 02:33:48;;;;;;;13.43;2.35;;;;;;;;;;5054488;28;20409;-78
2022/01/30 02:36:14;;;;;;;15.15;2.70;;;;;;;;;;5054967;28;20050;-80
2022/01/30 02:38:40;;;;;;;17.55;2.08;;;;;;;;;;5055646;28;20041;-76
2022/01/30 02:41:06;;;;;;;18.98;3.58;;;;;;;;;;5054402;28;20041;-82
2022/01/30 02:43:38;;;;;;;15.88;2.92;;;;;;;;;;5055166;28;20044;-78
2022/01/30 02:46:23;;;;;;;14.48;2.08;;;;;;;;;;5055323;28;20056;-76
2022/01/30 02:48:59;;;;;;;14.52;2.28;;;;;;;;;;5054965;28;20041;-79
2022/01/30 02:51:33;;;;;;;8.38;1.70;;;;;;;;;;5054481;28;20107;-81
2022/01/30 02:54:07;;;;;;;9.75;2.78;;;;;;;;;;5055499;28;20062;-78
2022/01/30 02:56:35;;;;;;;18.88;2.40;;;;;;;;;;5050723;28;20077;-78
2022/01/30 02:59:01;;;;;;;12.55;2.55;;;;;;;;;;5018179;28;20041;-77
2022/01/30 03:01:27;;;;;;;13.52;2.70;;;;;;;;;;5035372;28;20041;-78
2022/01/30 03:03:57;;;;;;;20.92;4.00;;;;;;;;;;5034842;28;20080;-79
2022/01/30 03:06:23;;;;;;;12.00;1.70;;;;;;;;;;5018065;28;20048;-77
2022/01/30 03:08:49;;;;;;;16.95;4.95;;;;;;;;;;5018120;28;20288;-79
2022/01/30 03:11:15;;;;;;;25.02;3.97;;;;;;;;;;5017872;28;20401;-79
2022/01/30 03:13:41;;;;;;;16.58;3.70;;;;;;;;;;5018627;28;20048;-80
2022/01/30 03:16:07;;;;;;;17.73;3.72;;;;;;;;;;5018593;28;20068;-80
2022/01/30 03:18:33;;;;;;;12.75;2.88;;;;;;;;;;5034350;28;20045;-78
2022/01/30 03:20:59;;;;;;;20.15;3.22;;;;;;;;;;5018659;28;20033;-79
2022/01/30 03:23:29;;;;;;;13.02;3.20;;;;;;;;;;5018128;28;20105;-81
2022/01/30 03:25:58;;;;;;;22.50;4.75;;;;;;;;;;5034679;28;20120;-78
2022/01/30 03:28:25;;;;;;;22.42;2.72;;;;;;;;;;5018106;28;20095;-76
2022/01/30 03:30:55;;;;;;;19.90;2.70;;;;;;;;;;5017247;28;20048;-80
2022/01/30 03:33:21;;;;;;;17.23;3.13;;;;;;;;;;5033796;28;20137;-78
2022/01/30 03:35:47;;;;;;;10.18;2.88;;;;;;;;;;5017849;28;20037;-84
2022/01/30 03:38:14;;;;;;;15.68;2.75;;;;;;;;;;5017472;28;20052;-80
2022/01/30 03:40:43;;;;;;;15.18;3.58;;;;;;;;;;5017510;28;20038;-78
2022/01/30 03:43:09;;;;;;;27.15;5.05;;;;;;;;;;5033475;28;20049;-79
2022/01/30 03:45:35;;;;;;;13.43;3.80;;;;;;;;;;5034201;28;20080;-78
2022/01/30 03:48:01;;;;;;;14.32;2.80;;;;;;;;;;5017594;28;20045;-77
2022/01/30 03:50:28;;;;;;;15.00;2.85;;;;;;;;;;5033734;28;20132;-77
2022/01/30 03:52:57;;;;;;;15.15;2.97;;;;;;;;;;5033312;28;20056;-80
2022/01/30 03:55:23;;;;;;;11.23;2.15;;;;;;;;;;5033029;28;20041;-75
2022/01/30 03:57:50;;;;;;;22.25;3.45;;;;;;;;;;5034117;28;20052;-77
2022/01/30 04:00:16;;;;;;;25.77;4.93;;;;;;;;;;5018162;28;20496;-80
2022/01/30 04:02:42;;;;;;;22.88;4.20;;;;;;;;;;5018237;28;20041;-81
2022/01/30 04:05:09;;;;;;;15.13;2.33;;;;;;;;;;5033784;28;20041;-79
2022/01/30 04:07:36;;;;;;;26.83;5.47;;;;;;;;;;5017033;28;20128;-76
2022/01/30 04:10:04;;;;;;;27.15;6.05;;;;;;;;;;5016023;28;20115;-80
2022/01/30 04:12:30;;;;;;;23.23;5.25;;;;;;;;;;5033696;28;20041;-78
2022/01/30 04:14:56;;;;;;;18.35;4.88;;;;;;;;;;5016725;28;20136;-82
2022/01/30 04:17:22;;;;;;;27.38;5.10;;;;;;;;;;5032906;28;20124;-80
2022/01/30 04:19:49;;;;;;;28.35;5.85;;;;;;;;;;5016575;28;20402;-78
2022/01/30 04:22:15;;;;;;;22.98;4.82;;;;;;;;;;5033452;28;20400;-80
2022/01/30 04:24:41;;;;;;;21.38;4.10;;;;;;;;;;5016248;28;20465;-79
2022/01/30 04:27:07;;;;;;;21.88;3.70;;;;;;;;;;5033200;28;20133;-74
2022/01/30 04:29:33;;;;;;;27.08;5.03;;;;;;;;;;5016465;28;20505;-79
2022/01/30 04:32:00;;;;;;;21.25;3.67;;;;;;;;;;5033060;28;20041;-78
2022/01/30 04:34:27;;;;;;;17.42;3.67;;;;;;;;;;5016694;28;20048;-78
2022/01/30 04:37:01;;;;;;;11.57;2.70;;;;;;;;;;5016792;28;20049;-76
2022/01/30 04:40:09;;;;;;;23.02;4.47;;;;;;;;;;5016628;28;20041;-78
2022/01/30 04:53:50;;;;;;;27.13;4.43;;;;;;;;;;5032661;28;20136;-80
2022/01/30 05:09:38;;;;;;;20.98;3.65;;;;;;;;;;5023385;28;20041;-78
2022/01/30 05:12:05;;;;;;;18.20;3.85;;;;;;;;;;5030740;28;20057;-77
2022/01/30 05:14:35;;;;;;;20.13;3.55;;;;;;;;;;5016801;28;20041;-81
2022/01/30 05:17:01;;;;;;;23.08;3.72;;;;;;;;;;5016903;28;20045;-78
2022/01/30 05:19:27;;;;;;;31.35;4.43;;;;;;;;;;5033044;28;20041;-79
2022/01/30 05:21:54;;;;;;;19.50;3.35;;;;;;;;;;5017180;28;20477;-79
2022/01/30 05:24:20;;;;;;;24.77;4.60;;;;;;;;;;5012195;28;20378;-78
2022/01/30 05:26:46;;;;;;;26.02;4.65;;;;;;;;;;5029944;28;20041;-80
2022/01/30 05:29:14;;;;;;;24.95;4.60;;;;;;;;;;5029599;28;20497;-81
2022/01/30 05:31:40;;;;;;;23.13;3.72;;;;;;;;;;5029388;28;20057;-80
2022/01/30 05:34:06;;;;;;;35.72;6.07;;;;;;;;;;5029679;28;20049;-83
2022/01/30 05:36:33;;;;;;;22.98;3.72;;;;;;;;;;5013973;28;20037;-80
2022/01/30 05:39:00;;;;;;;33.30;6.43;;;;;;;;;;5012812;28;20042;-74
2022/01/30 05:41:27;;;;;;;22.60;4.60;;;;;;;;;;5028905;28;20057;-77
2022/01/30 05:43:57;;;;;;;23.67;4.35;;;;;;;;;;5013307;28;20096;-80
2022/01/30 05:46:32;;;;;;;17.30;3.47;;;;;;;;;;5013287;28;20049;-75
2022/01/30 05:49:01;;;;;;;17.10;4.13;;;;;;;;;;5013290;28;20149;-81
2022/01/30 05:51:27;;;;;;;25.17;4.55;;;;;;;;;;5012012;28;20045;-80
2022/01/30 05:53:53;;;;;;;19.73;3.10;;;;;;;;;;5029277;28;20034;-79
2022/01/30 05:56:19;;;;;;;38.88;6.85;;;;;;;;;;5029968;28;20033;-77
2022/01/30 05:58:45;;;;;;;20.52;4.53;;;;;;;;;;5029264;28;20140;-77
2022/01/30 06:01:11;;;;;;;26.40;4.53;;;;;;;;;;5012914;28;20046;-75
2022/01/30 06:03:37;;;;;;;31.77;5.40;;;;;;;;;;5014236;28;20049;-78
2022/01/30 06:06:03;;;;;;;19.58;4.30;;;;;;;;;;5033318;28;20243;-79
2022/01/30 06:08:56;;;;;;;20.88;3.40;;;;;;;;;;5017070;28;20054;-82
2022/01/30 06:11:22;;;;;;;20.33;4.70;;;;;;;;;;5031278;28;20057;-81
2022/01/30 06:13:48;;;;;;;28.45;5.75;;;;;;;;;;5015964;28;20041;-78
2022/01/30 06:16:18;;;;;;;29.08;6.03;;;;;;;;;;5031941;28;20134;-77
2022/01/30 06:18:44;;;;;;;25.85;5.40;;;;;;;;;;5033559;28;20069;-80
2022/01/30 06:21:10;;;;;;;29.10;4.30;;;;;;;;;;5016508;28;20041;-78
2022/01/30 06:23:36;;;;;;;31.33;5.25;;;;;;;;;;5017399;28;20072;-79
2022/01/30 06:26:03;;;;;;;25.55;3.90;;;;;;;;;;5016312;28;20045;-79
2022/01/30 06:28:29;;;;;;;18.90;4.32;;;;;;;;;;5015518;28;20045;-80
2022/01/30 06:30:55;;;;;;;27.55;4.53;;;;;;;;;;5018044;28;20065;-82
2022/01/30 06:33:21;;;;;;;23.15;3.75;;;;;;;;;;5019828;28;20519;-77
2022/01/30 06:35:47;;;;;;;30.45;5.68;;;;;;;;;;5019918;28;20041;-78
2022/01/30 06:38:13;;;;;;;32.33;4.70;;;;;;;;;;5019417;28;20048;-76
2022/01/30 06:40:39;;;;;;;27.42;5.95;;;;;;;;;;5020317;28;20042;-79
2022/01/30 06:43:05;;;;;;;33.15;6.03;;;;;;;;;;5018890;28;20506;-80
2022/01/30 06:45:31;;;;;;;23.48;5.13;;;;;;;;;;5020176;28;20053;-86
2022/01/30 06:47:59;;;;;;;24.80;5.40;;;;;;;;;;5036488;28;20046;-78
2022/01/30 06:50:24;;;;;;;35.80;8.02;;;;;;;;;;5034696;28;20041;-81
2022/01/30 06:52:51;;;;;;;27.95;6.47;;;;;;;;;;5019538;28;20569;-76
2022/01/30 06:55:17;;;;;;;38.72;6.53;;;;;;;;;;5035547;28;20049;-76
2022/01/30 06:57:44;;;;;;;29.67;5.55;;;;;;;;;;5035912;28;20474;-76
2022/01/30 07:00:10;;;;;;;23.90;4.95;;;;;;;;;;5034983;28;20038;-80
2022/01/30 07:02:36;;;;;;;45.78;6.35;;;;;;;;;;5018958;28;20041;-76
2022/01/30 07:05:02;;;;;;;30.27;5.22;;;;;;;;;;5034472;28;20099;-78
2022/01/30 07:07:29;;;;;;;25.48;5.45;;;;;;;;;;5017711;28;20033;-79
2022/01/30 07:09:55;;;;;;;33.75;5.25;;;;;;;;;;5034597;28;20056;-75
2022/01/30 07:12:21;;;;;;;24.23;4.95;;;;;;;;;;5018209;28;20045;-76
2022/01/30 07:14:47;;;;;;;26.05;5.82;;;;;;;;;;5018153;28;20076;-79
2022/01/30 07:17:13;;;;;;;21.48;4.65;;;;;;;;;;5049950;28;20420;-76
2022/01/30 07:19:39;;;;;;;18.50;3.83;;;;;;;;;;5033023;28;20033;-80
2022/01/30 07:22:05;;;;;;;35.35;5.57;;;;;;;;;;5070365;28;20037;-76
2022/01/30 07:24:31;;;;;;;17.92;4.25;;;;;;;;;;5070184;28;20179;-79
2022/01/30 07:26:57;;;;;;;29.73;4.75;;;;;;;;;;5053739;28;20185;-77
2022/01/30 07:29:23;;;;;;;31.15;6.20;;;;;;;;;;5029461;28;20037;-80
2022/01/30 07:31:49;;;;;;;24.33;6.05;;;;;;;;;;5036410;28;20123;-76
2022/01/30 07:34:15;;;;;;;34.30;6.43;;;;;;;;;;5071088;28;20098;-77
2022/01/30 07:36:42;;;;;;;29.13;5.60;;;;;;;;;;5050778;28;20059;-77
2022/01/30 07:39:09;;;;;;;26.65;5.10;;;;;;;;;;5030606;28;20029;-76
2022/01/30 07:41:35;;;;;;;30.40;6.60;;;;;;;;;;5053936;28;20044;-82
2022/01/30 07:44:02;;;;;;;25.63;5.70;;;;;;;;;;5052095;28;20049;-82
2022/01/30 07:46:28;;;;;;;19.85;4.15;;;;;;;;;;5053632;28;20069;-78
2022/01/30 07:48:55;;;;;;;25.92;4.72;;;;;;;;;;5071463;28;20033;-83
2022/01/30 07:51:21;;;;;;;20.25;4.65;;;;;;;;;;5054217;28;20517;-84
2022/01/30 07:53:50;;;;;;;26.08;5.57;;;;;;;;;;5028641;28;20033;-75
2022/01/30 07:56:16;;;;;;;25.30;5.15;;;;;;;;;;5036801;28;20037;-79
2022/01/30 07:58:42;;;;;;;27.20;5.05;;;;;;;;;;5028697;28;20436;-79
2022/01/30 08:01:08;;;;;;;20.55;3.92;;;;;;;;;;5035865;28;20097;-80
2022/01/30 08:03:34;;;;;;;29.63;4.97;;;;;;;;;;5054601;28;20127;-79
2022/01/30 08:06:00;;;;;;;20.13;4.85;;;;;;;;;;5054854;28;20041;-79
2022/01/30 08:08:26;;;;;;;22.08;4.78;;;;;;;;;;5054211;28;20041;-79
2022/01/30 08:10:52;;;;;;;19.65;5.03;;;;;;;;;;5054156;28;20057;-82
2022/01/30 08:13:18;;;;;;;26.75;5.72;;;;;;;;;;5055563;28;20051;-76
2022/01/30 08:15:45;;;;;;;14.00;2.90;;;;;;;;;;5054964;28;20041;-80
2022/01/30 08:18:11;;;;;;;28.77;6.70;;;;;;;;;;5054465;28;20044;-76
2022/01/30 08:20:37;;;;;;;31.65;6.35;;;;;;;;;;5054648;28;20087;-79
2022/01/30 08:23:11;;;;;;;28.83;5.78;;;;;;;;;;5054955;28;20080;-78
2022/01/30 08:25:38;;;;;;;25.90;4.70;;;;;;;;;;5054382;28;20489;-78
2022/01/30 08:28:06;;;;;;;17.90;4.82;;;;;;;;;;5052792;28;20061;-78
2022/01/30 08:30:35;;;;;;;30.08;4.90;;;;;;;;;;5054939;28;20333;-82
2022/01/30 08:33:02;;;;;;;24.80;5.20;;;;;;;;;;5054116;28;20045;-77
2022/01/30 08:35:29;;;;;;;26.02;5.07;;;;;;;;;;5054301;28;20051;-79
2022/01/30 08:37:56;;;;;;;30.60;5.88;;;;;;;;;;5050415;28;20480;-78
2022/01/30 08:40:22;;;;;;;22.27;3.90;;;;;;;;;;5023446;28;20037;-80
2022/01/30 08:42:49;;;;;;;44.20;6.97;;;;;;;;;;5029579;28;20041;-77
2022/01/30 08:45:17;;;;;;;34.70;5.88;;;;;;;;;;5043825;28;20033;-74
2022/01/30 08:47:43;;;;;;;28.38;5.05;;;;;;;;;;5031377;28;20053;-78
2022/01/30 08:50:14;;;;;;;24.52;5.13;;;;;;;;;;5033282;28;20037;-81
2022/01/30 08:52:40;;;;;;;25.73;6.38;;;;;;;;;;5045916;28;20453;-77
2022/01/30 08:55:08;;;;;;;22.90;5.05;;;;;;;;;;5049982;28;20135;-82
2022/01/30 08:57:34;;;;;;;34.40;7.47;;;;;;;;;;5025524;28;20037;-79
2022/01/30 09:00:00;;;;;;;27.67;6.43;;;;;;;;;;5046120;28;20248;-81
2022/01/30 09:02:27;;;;;;;20.95;3.65;;;;;;;;;;5065579;28;20544;-81
2022/01/30 09:04:53;;;;;;;27.13;5.60;;;;;;;;;;5049846;28;20043;-78
2022/01/30 09:07:20;;;;;;;26.40;6.38;;;;;;;;;;5023332;28;20045;-80
2022/01/30 09:09:46;;;;;;;20.88;4.68;;;;;;;;;;5030141;28;20094;-80
2022/01/30 09:12:13;;;;;;;23.73;4.05;;;;;;;;;;5048253;28;20068;-79
2022/01/30 09:14:41;;;;;;;33.65;4.95;;;;;;;;;;5048660;28;20257;-77
2022/01/30 09:17:12;;;;;;;32.95;6.72;;;;;;;;;;5049105;28;20041;-79
2022/01/30 09:19:42;;;;;;;24.60;3.95;;;;;;;;;;5049494;28;20056;-78
2022/01/30 09:22:09;;;;;;;33.17;6.35;;;;;;;;;;5049872;28;20037;-79
2022/01/30 09:24:35;;;;;;;18.48;3.38;;;;;;;;;;5049703;28;20497;-76
2022/01/30 09:27:03;;;;;;;24.05;4.05;;;;;;;;;;5049700;28;20497;-77
2022/01/30 09:29:29;;;;;;;19.75;3.17;;;;;;;;;;5051168;28;20209;-80
2022/01/30 09:31:56;;;;;;;27.05;4.68;;;;;;;;;;5050011;28;20067;-83
2022/01/30 09:34:22;;;;;;;31.52;5.03;;;;;;;;;;5049862;28;20037;-78
2022/01/30 09:36:48;;;;;;;24.40;4.93;;;;;;;;;;5050691;28;20047;-79
2022/01/30 09:39:14;;;;;;;21.25;3.90;;;;;;;;;;5052164;28;20055;-74
2022/01/30 09:41:42;;;;;;;27.92;4.47;;;;;;;;;;5053910;28;20473;-80
2022/01/30 09:44:09;;;;;;;26.75;4.35;;;;;;;;;;5055047;28;20047;-81
2022/01/30 09:46:39;;;;;;;21.98;4.78;;;;;;;;;;5053890;28;20048;-79
2022/01/30 09:49:06;;;;;;;22.02;4.85;;;;;;;;;;5054637;28;20040;-76
2022/01/30 09:51:34;;;;;;;25.17;4.60;;;;;;;;;;5052670;28;20570;-74
2022/01/30 09:54:03;;;;;;;22.05;5.78;;;;;;;;;;5054487;28;20045;-78
2022/01/30 09:56:32;;;;;;;25.52;4.85;;;;;;;;;;5054233;28;20086;-81
2022/01/30 09:58:58;;;;;;;29.20;6.53;;;;;;;;;;5054574;28;20095;-80
2022/01/30 10:01:30;;;;;;;30.77;6.53;;;;;;;;;;5054328;28;20037;-82
2022/01/30 10:03:56;;;;;;;21.13;4.28;;;;;;;;;;5053787;28;20044;-77
2022/01/30 10:06:25;;;;;;;28.13;5.53;;;;;;;;;;5055008;28;20455;-82
2022/01/30 10:08:56;;;;;;;29.15;5.90;;;;;;;;;;5053315;28;20092;-79
2022/01/30 10:11:37;;;;;;;33.72;6.00;;;;;;;;;;5052006;28;20057;-76
2022/01/30 10:14:10;;;;;;;19.17;3.72;;;;;;;;;;5052315;28;20037;-80
2022/01/30 10:16:49;;;;;;;21.90;5.50;;;;;;;;;;5053454;28;20041;-75
2022/01/30 10:19:19;;;;;;;23.17;4.70;;;;;;;;;;5053955;28;20037;-74
2022/01/30 10:21:48;;;;;;;15.48;3.53;;;;;;;;;;5053045;28;20253;-79
2022/01/30 10:24:37;;;;;;;27.02;5.85;;;;;;;;;;5035814;28;20037;-76
2022/01/30 10:27:17;;;;;;;24.92;4.35;;;;;;;;;;5053166;28;20473;-83
2022/01/30 10:29:46;;;;;;;28.60;5.72;;;;;;;;;;5053482;28;20041;-79
2022/01/30 10:32:12;;;;;;;23.85;4.03;;;;;;;;;;5052978;28;20104;-77
2022/01/30 10:34:39;;;;;;;28.23;5.60;;;;;;;;;;5052724;28;20563;-78
2022/01/30 10:37:12;;;;;;;16.25;3.08;;;;;;;;;;5053451;28;20045;-76
2022/01/30 10:39:59;;;;;;;19.80;3.90;;;;;;;;;;5051881;28;20059;-80
2022/01/30 10:42:45;;;;;;;24.23;4.60;;;;;;;;;;5052027;28;20087;-76
2022/01/30 10:45:14;;;;;;;32.85;5.07;;;;;;;;;;5052144;28;20052;-77
2022/01/30 10:47:41;;;;;;;21.30;4.13;;;;;;;;;;5052091;28;20223;-76
2022/01/30 10:50:08;;;;;;;31.80;5.53;;;;;;;;;;5050436;28;20136;-84
2022/01/30 10:52:34;;;;;;;31.45;4.38;;;;;;;;;;5049955;28;20033;-79
2022/01/30 10:55:03;;;;;;;25.60;4.75;;;;;;;;;;5051122;28;20380;-78
2022/01/30 10:57:30;;;;;;;17.13;3.50;;;;;;;;;;5050962;28;20094;-81
2022/01/30 10:59:57;;;;;;;17.52;4.57;;;;;;;;;;5050438;28;20122;-76
2022/01/30 11:02:23;;;;;;;28.05;5.63;;;;;;;;;;5050925;28;20044;-78
2022/01/30 11:04:50;;;;;;;38.15;5.88;;;;;;;;;;5049917;28;20103;-75
2022/01/30 11:07:20;;;;;;;27.10;5.40;;;;;;;;;;5051037;28;20052;-80
2022/01/30 11:09:58;;;;;;;24.13;3.75;;;;;;;;;;5034127;28;20405;-77
2022/01/30 11:12:34;;;;;;;21.65;3.92;;;;;;;;;;5050539;28;20049;-78
2022/01/30 11:15:18;;;;;;;21.83;3.72;;;;;;;;;;5050343;28;20110;-80
2022/01/30 11:17:44;;;;;;;25.52;4.57;;;;;;;;;;5049976;28;20037;-79
2022/01/30 11:20:12;;;;;;;20.23;3.22;;;;;;;;;;5050757;28;20382;-80
2022/01/30 11:22:39;;;;;;;34.15;4.68;;;;;;;;;;5034479;28;20497;-79
2022/01/30 11:25:07;;;;;;;26.55;5.75;;;;;;;;;;5051112;28;20519;-79
2022/01/30 11:27:34;;;;;;;13.80;2.72;;;;;;;;;;5050997;28;20340;-80
2022/01/30 11:30:00;;;;;;;25.52;5.20;;;;;;;;;;5050162;28;20051;-77
2022/01/30 11:32:27;;;;;;;19.60;2.55;;;;;;;;;;5050775;28;20048;-79
2022/01/30 11:34:54;;;;;;;24.45;4.55;;;;;;;;;;5051500;28;20044;-77
2022/01/30 11:37:20;;;;;;;25.90;5.63;;;;;;;;;;5051100;28;20044;-77
2022/01/30 11:39:48;;;;;;;24.38;6.32;;;;;;;;;;5051547;28;20413;-78
2022/01/30 11:42:27;;;;;;;20.23;3.55;;;;;;;;;;5050835;28;20083;-78
2022/01/30 11:45:08;;;;;;;19.45;3.30;;;;;;;;;;5051100;28;20045;-78
2022/01/30 11:47:55;;;;;;;23.50;3.63;;;;;;;;;;5051806;28;20050;-80
2022/01/30 11:50:25;;;;;;;26.08;5.32;;;;;;;;;;5050260;28;20453;-78
2022/01/30 11:52:53;;;;;;;12.18;3.55;;;;;;;;;;5051140;28;20130;-82
2022/01/30 11:55:38;;;;;;;34.25;5.40;;;;;;;;;;5051034;28;20103;-79
2022/01/30 11:58:05;;;;;;;25.85;4.47;;;;;;;;;;5050308;28;20107;-79
2022/01/30 12:00:36;;;;;;;22.13;4.18;;;;;;;;;;5050300;28;20074;-77
2022/01/30 12:03:22;;;;;;;21.73;3.22;;;;;;;;;;5048907;28;20045;-77
2022/01/30 12:05:49;;;;;;;23.60;3.63;;;;;;;;;;5049951;28;20041;-78
2022/01/30 12:08:37;;;;;;;27.85;4.47;;;;;;;;;;5049601;28;20108;-81
2022/01/30 12:11:03;;;;;;;23.15;3.70;;;;;;;;;;5049717;28;20076;-79
2022/01/30 12:13:44;;;;;;;21.20;4.30;;;;;;;;;;5049063;28;20041;-84
2022/01/30 12:16:29;;;;;;;16.70;3.55;;;;;;;;;;5049176;28;20080;-79
2022/01/30 12:18:56;;;;;;;20.45;4.35;;;;;;;;;;5049281;28;20045;-78
2022/01/30 12:21:27;;;;;;;16.95;3.55;;;;;;;;;;5049713;28;20140;-78
2022/01/30 12:23:53;;;;;;;21.88;2.78;;;;;;;;;;5066159;28;20049;-77
2022/01/30 12:26:19;;;;;;;22.75;3.63;;;;;;;;;;5032928;28;20520;-81
2022/01/30 12:28:50;;;;;;;16.02;3.90;;;;;;;;;;5048924;28;20579;-81
2022/01/30 12:31:26;;;;;;;24.10;3.60;;;;;;;;;;5032193;28;20044;-76
2022/01/30 12:34:05;;;;;;;19.75;3.40;;;;;;;;;;5031786;28;20280;-82
2022/01/30 12:36:32;;;;;;;15.13;3.67;;;;;;;;;;5033443;28;20041;-78
2022/01/30 12:39:24;;;;;;;12.20;2.35;;;;;;;;;;5032826;28;20041;-78
2022/01/30 12:41:51;;;;;;;20.65;3.92;;;;;;;;;;5066472;28;20052;-77
2022/01/30 12:44:23;;;;;;;16.77;2.95;;;;;;;;;;5022179;28;20037;-81
2022/01/30 12:46:53;;;;;;;24.73;5.38;;;;;;;;;;5013866;28;20045;-77
2022/01/30 12:49:20;;;;;;;26.55;4.75;;;;;;;;;;5025392;28;20067;-80
2022/01/30 12:51:51;;;;;;;19.05;3.42;;;;;;;;;;5031609;28;20041;-77
2022/01/30 12:54:21;;;;;;;23.70;3.97;;;;;;;;;;5031008;28;20400;-77
2022/01/30 12:56:49;;;;;;;15.05;4.50;;;;;;;;;;5031940;28;20579;-80
2022/01/30 12:59:16;;;;;;;16.20;3.05;;;;;;;;;;5033677;28;20079;-78
2022/01/30 13:01:43;;;;;;;32.13;5.85;;;;;;;;;;5032944;28;20128;-78
2022/01/30 13:04:10;;;;;;;17.85;4.15;;;;;;;;;;5048914;28;20045;-80
2022/01/30 13:06:38;;;;;;;28.20;5.20;;;;;;;;;;5032196;28;20048;-79
2022/01/30 13:09:05;;;;;;;19.05;4.82;;;;;;;;;;5032533;28;20051;-80
2022/01/30 13:11:31;;;;;;;27.88;4.20;;;;;;;;;;5031380;28;20056;-82
2022/01/30 13:13:58;;;;;;;21.25;3.92;;;;;;;;;;5031210;28;20463;-79
2022/01/30 13:16:25;;;;;;;33.28;4.40;;;;;;;;;;5031697;28;20053;-79
2022/01/30 13:18:51;;;;;;;19.55;3.10;;;;;;;;;;5067193;28;20094;-81
2022/01/30 13:21:24;;;;;;;17.05;3.03;;;;;;;;;;5065907;28;20049;-78
2022/01/30 13:23:51;;;;;;;19.45;3.58;;;;;;;;;;5032349;28;20094;-80
2022/01/30 13:26:33;;;;;;;19.02;2.63;;;;;;;;;;5031278;28;20478;-74
2022/01/30 13:29:01;;;;;;;15.38;2.72;;;;;;;;;;5064393;28;20047;-77
2022/01/30 13:31:27;;;;;;;21.83;4.43;;;;;;;;;;5031976;28;20041;-76
2022/01/30 13:34:08;;;;;;;23.65;3.92;;;;;;;;;;5031506;28;20080;-77
2022/01/30 13:36:35;;;;;;;18.00;2.78;;;;;;;;;;5067882;28;20037;-82
2022/01/30 13:39:06;;;;;;;19.48;3.45;;;;;;;;;;5035175;28;20053;-80
2022/01/30 13:41:43;;;;;;;18.33;3.00;;;;;;;;;;5068719;28;20044;-79
2022/01/30 13:44:21;;;;;;;18.48;2.88;;;;;;;;;;5035257;28;20095;-76
2022/01/30 13:47:10;;;;;;;19.88;3.30;;;;;;;;;;5051965;28;20049;-81
2022/01/30 13:49:43;;;;;;;20.10;4.57;;;;;;;;;;5070654;28;20043;-81
2022/01/30 13:52:11;;;;;;;13.27;3.55;;;;;;;;;;5036533;28;20090;-79
2022/01/30 13:54:38;;;;;;;13.82;3.00;;;;;;;;;;5036720;28;20052;-82
2022/01/30 13:57:06;;;;;;;21.25;4.35;;;;;;;;;;5035478;28;20037;-80
2022/01/30 13:59:33;;;;;;;16.25;4.60;;;;;;;;;;5035332;28;20496;-79
2022/01/30 14:02:03;;;;;;;8.00;2.15;;;;;;;;;;5035928;28;20051;-81
2022/01/30 14:04:30;;;;;;;12.73;2.42;;;;;;;;;;5052314;28;20549;-78
2022/01/30 14:06:59;;;;;;;21.65;3.67;;;;;;;;;;5035003;28;20037;-81
2022/01/30 14:09:35;;;;;;;18.95;4.18;;;;;;;;;;5034805;28;20041;-76
2022/01/30 14:12:03;;;;;;;23.85;4.93;;;;;;;;;;5052356;28;20436;-80
2022/01/30 14:14:29;;;;;;;24.60;3.60;;;;;;;;;;5067880;28;20033;-78
2022/01/30 14:17:00;;;;;;;7.60;2.05;;;;;;;;;;5034281;28;20416;-80
2022/01/30 14:19:29;;;;;;;13.68;2.60;;;;;;;;;;5033899;28;20127;-77
2022/01/30 14:21:57;;;;;;;15.57;3.28;;;;;;;;;;5067812;28;20059;-82
2022/01/30 14:24:25;;;;;;;13.93;2.58;;;;;;;;;;5034275;28;20041;-77
2022/01/30 14:27:10;;;;;;;14.80;3.65;;;;;;;;;;5038370;28;20049;-84
2022/01/30 14:29:37;;;;;;;21.05;3.13;;;;;;;;;;5038583;28;20056;-83
2022/01/30 14:32:08;;;;;;;10.35;2.40;;;;;;;;;;5037291;28;20146;-82
2022/01/30 14:34:34;;;;;;;13.95;2.97;;;;;;;;;;5037985;28;20489;-76
2022/01/30 14:37:03;;;;;;;18.60;3.25;;;;;;;;;;5037222;28;20048;-79
2022/01/30 14:39:30;;;;;;;10.10;2.72;;;;;;;;;;5037647;28;20044;-76
2022/01/30 14:41:57;;;;;;;14.95;2.33;;;;;;;;;;5037511;28;20077;-74
2022/01/30 14:44:23;;;;;;;19.42;3.05;;;;;;;;;;5070193;28;20045;-76
2022/01/30 14:46:49;;;;;;;19.63;2.53;;;;;;;;;;5037615;28;20508;-74
2022/01/30 14:49:17;;;;;;;16.75;2.97;;;;;;;;;;5037387;28;20045;-79
2022/01/30 14:51:43;;;;;;;18.20;2.80;;;;;;;;;;5037507;28;20128;-80
2022/01/30 14:54:09;;;;;;;16.15;2.90;;;;;;;;;;5036937;28;20041;-77
2022/01/30 14:56:35;;;;;;;21.23;3.33;;;;;;;;;;5036823;28;20037;-77
2022/01/30 14:59:01;;;;;;;20.90;3.75;;;;;;;;;;5037420;28;20040;-77
2022/01/30 15:01:29;;;;;;;21.77;4.03;;;;;;;;;;5036547;28;20037;-78
2022/01/30 15:03:55;;;;;;;19.45;3.97;;;;;;;;;;5036162;28;20098;-78
2022/01/30 15:06:21;;;;;;;19.08;3.15;;;;;;;;;;5070236;28;20045;-76
2022/01/30 15:08:47;;;;;;;19.98;3.30;;;;;;;;;;5069875;28;20041;-75
2022/01/30 15:11:13;;;;;;;17.80;2.63;;;;;;;;;;5069402;28;20382;-74
2022/01/30 15:13:39;;;;;;;18.67;2.58;;;;;;;;;;5036996;28;20440;-77
2022/01/30 15:16:10;;;;;;;19.52;2.75;;;;;;;;;;5036731;28;20041;-76
2022/01/30 15:18:42;;;;;;;28.88;4.97;;;;;;;;;;5069890;28;20118;-76
2022/01/30 15:21:12;;;;;;;9.52;2.20;;;;;;;;;;5036166;28;20036;-77
2022/01/30 15:23:38;;;;;;;10.63;2.70;;;;;;;;;;5036607;28;20497;-78
2022/01/30 15:26:04;;;;;;;17.70;3.15;;;;;;;;;;5036443;28;20047;-76